Time;durP1;ratioP1;P1;durP2;ratioP2;P2;SDS_P1;SDS_P2;PMS_P1;PMS_P2;Temp;Humidity;BMP_temperature;BMP_pressure;BME280_temperature;BME280_humidity;BME280_pressure;Samples;Min_cycle;Max_cycle;Signal;HPM_P1;HPM_P2
2022/12/12 00:01:38;;;;;;;0.00;0.00;;;;;;;2.52;71.43;100348.75;7360142;19;20006;-57
2022/12/12 00:04:05;;;;;;;0.05;0.05;;;;;;;2.15;71.58;100303.94;7255409;19;2004535;-57
2022/12/12 00:06:30;;;;;;;0.10;0.10;;;;;;;2.46;71.92;100351.31;7357761;19;20014;-57
2022/12/12 00:08:56;;;;;;;0.05;0.05;;;;;;;2.48;71.48;100362.47;7358479;19;20032;-57
2022/12/12 00:11:22;;;;;;;0.10;0.10;;;;;;;2.48;71.53;100359.91;7357803;19;20017;-57
2022/12/12 00:13:48;;;;;;;0.00;0.00;;;;;;;2.44;72.02;100360.75;7361141;19;20007;-56
2022/12/12 00:16:13;;;;;;;0.10;0.10;;;;;;;2.46;72.02;100361.63;7358982;19;20018;-56
2022/12/12 00:18:39;;;;;;;0.10;0.10;;;;;;;2.35;71.88;100353.84;7357370;19;20568;-58
2022/12/12 00:21:10;;;;;;;0.10;0.10;;;;;;;2.46;72.25;100369.34;7358325;19;20814;-57
2022/12/12 00:23:35;;;;;;;0.05;0.05;;;;;;;2.28;71.57;100344.34;7359392;19;20523;-58
2022/12/12 00:26:06;;;;;;;0.10;0.10;;;;;;;2.46;71.99;100371.94;7360081;19;20007;-57
2022/12/12 00:28:32;;;;;;;0.00;0.00;;;;;;;2.29;72.11;100341.78;7357444;19;20022;-57
2022/12/12 00:30:57;;;;;;;0.10;0.10;;;;;;;2.43;71.77;100361.59;7359033;19;25507;-56
2022/12/12 00:33:23;;;;;;;0.00;0.00;;;;;;;2.43;71.78;100364.16;7358891;19;20010;-57
2022/12/12 00:35:50;;;;;;;0.00;0.00;;;;;;;2.41;71.47;100353.00;7359294;19;20014;-57
2022/12/12 00:38:17;;;;;;;0.00;0.00;;;;;;;2.39;71.68;100357.31;7360152;19;20010;-56
2022/12/12 00:40:42;;;;;;;0.00;0.00;;;;;;;2.27;71.61;100335.75;7357940;19;20022;-57
2022/12/12 00:43:08;;;;;;;0.10;0.10;;;;;;;2.33;71.58;100350.38;7355645;19;20744;-58
2022/12/12 00:45:33;;;;;;;0.00;0.00;;;;;;;2.27;71.80;100345.19;7352477;19;20022;-57
2022/12/12 00:47:58;;;;;;;0.00;0.00;;;;;;;2.29;71.82;100344.38;7355336;19;20033;-57
2022/12/12 00:50:24;;;;;;;0.10;0.10;;;;;;;2.17;71.88;100326.25;7359795;19;20047;-58
2022/12/12 00:52:49;;;;;;;0.00;0.00;;;;;;;2.24;72.15;100340.03;7359247;19;20034;-57
2022/12/12 00:55:15;;;;;;;0.08;0.08;;;;;;;1.81;71.80;100265.97;7358301;19;20370;-57
2022/12/12 00:57:40;;;;;;;0.10;0.10;;;;;;;2.19;71.70;100327.13;7355983;19;20027;-59
2022/12/12 01:00:08;;;;;;;0.00;0.00;;;;;;;2.29;71.60;100348.66;7359374;19;20082;-57
2022/12/12 01:02:34;;;;;;;0.00;0.00;;;;;;;2.20;71.90;100334.00;7357511;19;20017;-57
2022/12/12 01:04:59;;;;;;;0.00;0.00;;;;;;;2.22;71.76;100329.72;7337671;19;20010;-57
2022/12/12 01:07:25;;;;;;;0.00;0.00;;;;;;;2.22;71.80;100332.28;7357726;19;20010;-58
2022/12/12 01:09:50;;;;;;;0.00;0.00;;;;;;;2.08;71.99;100313.34;7357896;19;20035;-58
2022/12/12 01:12:16;;;;;;;0.00;0.00;;;;;;;1.99;72.20;100303.00;7355572;19;20023;-56
2022/12/12 01:14:41;;;;;;;0.00;0.00;;;;;;;2.22;71.96;100331.44;7357549;19;20077;-57
2022/12/12 01:17:07;;;;;;;0.00;0.00;;;;;;;2.20;71.82;100333.16;7356124;19;20025;-58
2022/12/12 01:19:32;;;;;;;0.00;0.00;;;;;;;2.15;72.11;100330.53;7356154;19;20022;-57
2022/12/12 01:21:57;;;;;;;0.10;0.10;;;;;;;2.11;72.48;100312.50;7355730;19;20007;-58
2022/12/12 01:24:23;;;;;;;0.00;0.00;;;;;;;2.11;72.36;100312.50;7358408;19;20021;-57
2022/12/12 01:26:48;;;;;;;0.00;0.00;;;;;;;2.14;72.43;100318.53;7355520;19;20014;-58
2022/12/12 01:29:14;;;;;;;0.00;0.00;;;;;;;2.21;72.38;100325.41;7357010;19;20010;-58
2022/12/12 01:31:39;;;;;;;0.10;0.10;;;;;;;2.10;72.36;100311.63;7357687;19;20065;-57
2022/12/12 01:34:05;;;;;;;0.00;0.00;;;;;;;2.23;72.35;100328.00;7362353;19;20022;-58
2022/12/12 01:36:30;;;;;;;0.00;0.00;;;;;;;2.07;72.19;100301.28;7360698;19;20021;-57
2022/12/12 01:38:56;;;;;;;0.10;0.10;;;;;;;2.23;72.33;100330.56;7360639;19;20507;-56
2022/12/12 01:41:22;;;;;;;0.10;0.10;;;;;;;2.16;71.76;100324.53;7362931;19;20011;-57
2022/12/12 01:43:48;;;;;;;0.00;0.00;;;;;;;2.19;72.22;100326.28;7363212;19;20923;-58
2022/12/12 01:46:41;;;;;;;0.00;0.00;;;;;;;2.24;71.93;100332.31;7361396;19;20026;-56
2022/12/12 01:49:26;;;;;;;0.00;0.00;;;;;;;2.24;71.86;100330.59;7363306;19;20011;-57
2022/12/12 01:51:56;;;;;;;0.00;0.00;;;;;;;2.20;72.62;100334.00;7364926;19;20774;-57
2022/12/12 01:54:29;;;;;;;0.00;0.00;;;;;;;2.20;72.28;100325.41;7362514;19;20021;-57
2022/12/12 01:56:57;;;;;;;0.00;0.00;;;;;;;2.14;71.86;100323.69;7362803;19;20116;-57
2022/12/12 01:59:24;;;;;;;0.00;0.00;;;;;;;2.18;71.93;100329.69;7362408;19;20025;-58
2022/12/12 02:01:51;;;;;;;0.00;0.00;;;;;;;2.10;72.11;100311.63;7363318;19;20010;-57
2022/12/12 02:04:18;;;;;;;0.10;0.10;;;;;;;2.10;72.09;100318.50;7361552;19;20015;-57
2022/12/12 02:06:44;;;;;;;0.10;0.10;;;;;;;2.08;72.18;100315.91;7363029;19;20013;-57
2022/12/12 02:09:12;;;;;;;0.10;0.10;;;;;;;2.08;72.21;100311.63;7361749;19;20053;-57
2022/12/12 02:11:51;;;;;;;0.00;0.00;;;;;;;2.13;72.42;100323.66;7362201;19;20023;-57
2022/12/12 02:14:25;;;;;;;0.00;0.00;;;;;;;2.12;71.93;100320.22;7363832;19;20014;-57
2022/12/12 02:17:08;;;;;;;0.00;0.00;;;;;;;2.11;72.07;100323.66;7360011;19;20024;-57
2022/12/12 02:19:34;;;;;;;0.00;0.00;;;;;;;2.08;72.15;100318.50;7362589;19;20686;-57
2022/12/12 02:22:07;;;;;;;0.00;0.00;;;;;;;1.55;72.06;100231.50;7360810;19;20014;-57
2022/12/12 02:24:32;;;;;;;0.00;0.00;;;;;;;2.05;72.24;100309.03;7361868;19;20010;-56
2022/12/12 02:27:00;;;;;;;0.00;0.00;;;;;;;2.05;72.34;100319.31;7361452;19;20114;-57
2022/12/12 02:29:48;;;;;;;0.00;0.00;;;;;;;2.05;72.40;100314.19;7363028;19;20011;-58
2022/12/12 02:32:31;;;;;;;0.00;0.00;;;;;;;1.52;72.06;100228.88;7359455;19;20062;-57
2022/12/12 02:34:59;;;;;;;0.00;0.00;;;;;;;2.04;72.44;100312.47;7359971;19;20697;-56
2022/12/12 02:37:37;;;;;;;0.10;0.10;;;;;;;2.04;72.27;100306.44;7362431;19;20029;-58
2022/12/12 02:40:06;;;;;;;;;;;;;;;2.04;71.75;100309.88;7361040;19;20011;-58
2022/12/12 02:42:37;;;;;;;0.00;0.00;;;;;;;2.03;71.94;100304.72;7362659;19;19947;-57
2022/12/12 02:45:24;;;;;;;0.00;0.00;;;;;;;2.01;72.27;100304.69;7355664;19;20024;-58
2022/12/12 02:47:53;;;;;;;0.05;0.05;;;;;;;1.92;72.42;100301.22;7362696;19;20014;-56
2022/12/12 02:50:25;;;;;;;0.00;0.00;;;;;;;1.99;72.21;100315.88;7360055;19;20837;-56
2022/12/12 02:52:50;;;;;;;0.00;0.00;;;;;;;1.89;72.21;100306.34;7362244;19;20732;-57
2022/12/12 02:55:17;;;;;;;0.10;0.10;;;;;;;1.93;72.52;100308.09;7359098;19;20010;-57
2022/12/12 02:57:43;;;;;;;0.10;0.10;;;;;;;1.95;72.37;100311.53;7354010;19;20037;-59
2022/12/12 03:00:33;;;;;;;0.10;0.10;;;;;;;1.91;71.69;100304.66;7360896;19;20890;-57
2022/12/12 03:09:04;;;;;;;0.10;0.10;;;;;;;1.85;72.17;100300.31;7260469;19;2005092;-57
2022/12/12 03:12:00;;;;;;;0.10;0.10;;;;;;;1.93;72.42;100313.25;7361102;19;20010;-56
2022/12/12 03:14:55;;;;;;;0.08;0.08;;;;;;;1.86;72.39;100296.03;7257491;19;2004390;-56
2022/12/12 03:17:27;;;;;;;0.00;0.00;;;;;;;1.91;72.45;100309.78;7262488;19;2004233;-58
2022/12/12 03:20:26;;;;;;;0.00;0.00;;;;;;;1.55;72.50;100244.38;7360259;19;20011;-57
2022/12/12 03:22:55;;;;;;;0.05;0.05;;;;;;;1.89;72.33;100296.06;7256754;19;2004753;-58
2022/12/12 03:25:29;;;;;;;0.10;0.10;;;;;;;1.88;72.40;100294.34;7362052;19;20014;-57
2022/12/12 03:28:06;;;;;;;0.10;0.10;;;;;;;1.50;72.29;100230.59;7360193;19;20085;-57
2022/12/12 03:30:36;;;;;;;0.00;0.00;;;;;;;1.71;72.40;100265.91;7360662;19;20401;-58
2022/12/12 03:33:26;;;;;;;0.00;0.00;;;;;;;1.87;72.49;100287.44;7361321;19;20007;-58
2022/12/12 03:36:00;;;;;;;0.00;0.00;;;;;;;1.80;72.39;100271.13;7361812;19;20026;-57
2022/12/12 03:38:33;;;;;;;0.10;0.10;;;;;;;1.85;72.72;100279.72;7359694;19;20453;-57
2022/12/12 03:41:02;;;;;;;0.10;0.10;;;;;;;1.85;72.63;100284.03;7358816;19;20503;-57
2022/12/12 03:43:34;;;;;;;0.00;0.00;;;;;;;1.78;72.37;100267.69;7355041;19;20006;-56
2022/12/12 03:46:22;;;;;;;0.00;0.00;;;;;;;1.87;72.82;100277.16;7361133;19;20018;-57
2022/12/12 03:49:04;;;;;;;0.00;0.00;;;;;;;1.72;72.49;100253.03;7361626;19;20006;-58
2022/12/12 03:51:36;;;;;;;0.00;0.00;;;;;;;1.87;72.67;100277.16;7358609;19;20074;-58
2022/12/12 03:54:09;;;;;;;0.05;0.05;;;;;;;1.77;72.68;100260.78;7361362;19;20107;-56
2022/12/12 03:56:45;;;;;;;0.03;0.03;;;;;;;1.86;72.84;100281.44;7358663;19;20438;-57
2022/12/12 03:59:16;;;;;;;0.00;0.00;;;;;;;1.87;72.78;100279.72;7359432;19;20018;-55
2022/12/12 04:01:41;;;;;;;0.00;0.00;;;;;;;1.85;72.42;100272.00;7360073;19;20585;-57
2022/12/12 04:04:14;;;;;;;0.00;0.00;;;;;;;1.83;72.62;100271.16;7342062;19;20014;-58
2022/12/12 04:07:21;;;;;;;0.00;0.00;;;;;;;1.83;72.42;100272.88;7360589;19;20470;-57
2022/12/12 04:15:57;;;;;;;0.00;0.00;;;;;;;1.84;72.27;100279.72;7357969;19;20018;-58
2022/12/12 04:18:26;;;;;;;0.00;0.00;;;;;;;1.80;72.68;100269.41;7259030;19;2004456;-58
2022/12/12 04:24:03;;;;;;;0.10;0.10;;;;;;;1.78;72.66;100273.69;7257360;19;2004388;-58
2022/12/12 04:26:40;;;;;;;0.00;0.00;;;;;;;1.70;72.72;100265.03;7356846;19;20031;-58
2022/12/12 04:29:11;;;;;;;0.00;0.00;;;;;;;1.76;72.69;100265.06;7355886;19;20017;-56
2022/12/12 04:31:48;;;;;;;0.10;0.10;;;;;;;1.70;72.63;100265.03;7357378;19;20018;-58
2022/12/12 04:34:36;;;;;;;0.10;0.10;;;;;;;1.74;72.19;100271.09;7357734;19;20031;-57
2022/12/12 04:37:04;;;;;;;0.10;0.10;;;;;;;1.68;72.41;100268.47;7355310;19;20034;-57
2022/12/12 04:39:31;;;;;;;0.08;0.08;;;;;;;1.71;72.45;100268.47;7357982;19;20370;-57
2022/12/12 04:41:59;;;;;;;0.00;0.00;;;;;;;1.57;72.10;100247.78;7360001;19;20011;-58
2022/12/12 04:44:28;;;;;;;0.00;0.00;;;;;;;1.63;72.57;100252.16;7356884;19;20011;-57
2022/12/12 04:46:56;;;;;;;0.00;0.00;;;;;;;1.56;72.12;100240.94;7359708;19;20062;-57
2022/12/12 04:49:27;;;;;;;0.00;0.00;;;;;;;1.47;72.43;100225.44;7357532;19;20029;-57
2022/12/12 04:51:58;;;;;;;0.10;0.10;;;;;;;1.59;72.42;100250.41;7358954;19;20073;-57
2022/12/12 04:54:26;;;;;;;0.03;0.03;;;;;;;1.60;72.60;100260.69;7355802;19;20014;-57
2022/12/12 04:56:57;;;;;;;0.00;0.00;;;;;;;1.10;72.76;100175.47;7358345;19;20761;-56
2022/12/12 04:59:23;;;;;;;0.10;0.10;;;;;;;1.41;72.70;100220.25;7355306;19;20015;-57
2022/12/12 05:02:07;;;;;;;0.10;0.10;;;;;;;1.60;73.13;100257.25;7361173;19;20119;-58
2022/12/12 05:04:43;;;;;;;0.10;0.10;;;;;;;1.62;72.76;100251.25;7359594;19;20616;-57
2022/12/12 05:07:15;;;;;;;0.08;0.08;;;;;;;1.56;73.06;100246.06;7361540;19;20027;-58
2022/12/12 05:09:42;;;;;;;0.10;0.10;;;;;;;1.51;73.23;100237.47;7366000;19;20010;-57
2022/12/12 05:12:08;;;;;;;0.10;0.10;;;;;;;1.60;73.33;100249.53;7365943;19;20014;-57
2022/12/12 05:14:33;;;;;;;0.10;0.10;;;;;;;1.55;73.01;100236.66;7365242;19;20002;-58
2022/12/12 05:17:05;;;;;;;0.10;0.10;;;;;;;1.65;72.70;100247.84;7366088;19;20669;-58
2022/12/12 05:19:30;;;;;;;0.10;0.10;;;;;;;1.59;73.08;100240.97;7363102;19;20109;-57
2022/12/12 05:21:56;;;;;;;0.10;0.10;;;;;;;1.43;72.58;100204.00;7366468;19;20011;-57
2022/12/12 05:24:21;;;;;;;0.10;0.10;;;;;;;1.59;72.75;100240.97;7366024;19;20017;-58
2022/12/12 05:26:47;;;;;;;0.00;0.00;;;;;;;1.51;72.47;100222.03;7365146;19;20816;-58
2022/12/12 05:29:12;;;;;;;0.00;0.00;;;;;;;1.43;72.65;100218.56;7365285;19;20042;-58
2022/12/12 05:31:37;;;;;;;0.10;0.10;;;;;;;1.53;72.91;100241.78;7366955;19;20014;-58
2022/12/12 05:34:03;;;;;;;0.10;0.10;;;;;;;1.17;73.05;100175.53;7366305;19;20046;-57
2022/12/12 05:36:29;;;;;;;0.10;0.10;;;;;;;1.55;72.98;100244.38;7363657;19;20804;-57
2022/12/12 05:38:55;;;;;;;0.00;0.00;;;;;;;1.52;72.84;100234.03;7363994;19;20010;-59
2022/12/12 05:41:20;;;;;;;0.00;0.00;;;;;;;1.56;72.77;100243.50;7364790;19;20010;-57
2022/12/12 05:43:45;;;;;;;0.05;0.05;;;;;;;1.52;72.56;100237.50;7365231;19;20022;-58
2022/12/12 05:46:11;;;;;;;0.08;0.08;;;;;;;1.52;72.56;100240.06;7365681;19;20039;-57
2022/12/12 05:48:36;;;;;;;0.10;0.10;;;;;;;1.51;72.50;100243.47;7366485;19;20026;-56
2022/12/12 05:51:02;;;;;;;0.00;0.00;;;;;;;1.45;72.47;100247.72;7365326;19;20014;-58
2022/12/12 05:53:28;;;;;;;0.10;0.10;;;;;;;1.33;72.56;100227.06;7367792;19;21324;-56
2022/12/12 05:55:54;;;;;;;0.10;0.10;;;;;;;1.42;72.74;100237.41;7364250;19;20019;-58
2022/12/12 05:58:19;;;;;;;0.10;0.10;;;;;;;1.37;72.53;100229.69;7365076;19;20393;-58
2022/12/12 06:00:52;;;;;;;0.08;0.08;;;;;;;1.43;72.64;100236.56;7363321;19;20010;-58
2022/12/12 06:03:19;;;;;;;0.10;0.10;;;;;;;1.41;72.63;100231.41;7363601;19;20013;-57
2022/12/12 06:05:45;;;;;;;0.10;0.10;;;;;;;1.24;72.95;100191.84;7365546;19;21382;-57
2022/12/12 06:08:12;;;;;;;0.03;0.03;;;;;;;1.36;72.76;100211.63;7365959;19;20006;-57
2022/12/12 06:10:37;;;;;;;0.00;0.00;;;;;;;1.33;72.91;100211.63;7365617;19;20018;-57
2022/12/12 06:13:03;;;;;;;0.10;0.10;;;;;;;1.38;72.81;100220.25;7365429;19;20046;-58
2022/12/12 06:15:28;;;;;;;0.00;0.00;;;;;;;1.36;72.78;100211.63;7364472;19;20113;-58
2022/12/12 06:17:54;;;;;;;0.00;0.00;;;;;;;1.26;73.16;100203.84;7365224;19;20010;-58
2022/12/12 06:20:19;;;;;;;0.10;0.10;;;;;;;1.35;73.12;100213.34;7363955;19;20010;-57
2022/12/12 06:22:45;;;;;;;0.10;0.10;;;;;;;1.38;73.21;100215.97;7365130;19;20425;-56
2022/12/12 06:25:11;;;;;;;0.10;0.10;;;;;;;1.39;73.30;100216.81;7363868;19;20650;-57
2022/12/12 06:27:37;;;;;;;0.00;0.00;;;;;;;1.35;72.92;100207.34;7364337;19;20015;-57
2022/12/12 06:30:04;;;;;;;0.00;0.00;;;;;;;1.39;72.77;100206.53;7365582;19;21316;-57
2022/12/12 06:32:29;;;;;;;0.00;0.00;;;;;;;1.36;73.01;100206.50;7363099;19;20674;-57
2022/12/12 06:34:55;;;;;;;0.10;0.10;;;;;;;0.96;72.96;100139.34;7363859;19;20007;-56
2022/12/12 06:37:21;;;;;;;0.00;0.00;;;;;;;1.36;72.97;100206.50;7359725;19;20040;-58
2022/12/12 06:39:46;;;;;;;0.00;0.00;;;;;;;1.34;72.55;100213.34;7366017;19;20127;-58
2022/12/12 06:42:12;;;;;;;0.10;0.10;;;;;;;1.26;73.01;100203.84;7362490;19;20036;-57
2022/12/12 06:44:37;;;;;;;0.10;0.10;;;;;;;1.27;72.80;100203.03;7365173;19;20104;-57
2022/12/12 06:47:02;;;;;;;0.10;0.10;;;;;;;1.25;73.10;100189.28;7360426;19;20813;-57
2022/12/12 06:49:28;;;;;;;0.10;0.10;;;;;;;1.25;73.34;100189.28;7364491;19;20568;-58
2022/12/12 06:51:53;;;;;;;0.10;0.10;;;;;;;1.20;73.13;100184.97;7363264;19;20036;-56
2022/12/12 06:54:19;;;;;;;0.10;0.10;;;;;;;1.28;72.94;100196.16;7363322;19;20044;-58
2022/12/12 06:56:44;;;;;;;0.00;0.00;;;;;;;1.28;72.98;100199.59;7361587;19;20006;-59
2022/12/12 06:59:11;;;;;;;0.10;0.10;;;;;;;1.25;73.35;100199.56;7354537;19;20002;-58
2022/12/12 07:01:37;;;;;;;0.10;0.10;;;;;;;1.21;73.25;100200.38;7359599;19;20015;-58
2022/12/12 07:04:03;;;;;;;0.00;0.00;;;;;;;1.16;73.14;100186.63;7364540;19;20339;-57
2022/12/12 07:06:28;;;;;;;0.10;0.10;;;;;;;1.14;72.99;100183.22;7361111;19;20017;-57
2022/12/12 07:08:57;;;;;;;0.13;0.13;;;;;;;1.25;73.29;100204.72;7364624;19;20014;-58
2022/12/12 07:11:24;;;;;;;0.10;0.10;;;;;;;1.25;72.90;100198.72;7357548;19;20038;-58
2022/12/12 07:13:50;;;;;;;0.00;0.00;;;;;;;1.23;73.10;100200.41;7361825;19;20618;-58
2022/12/12 07:16:16;;;;;;;0.03;0.03;;;;;;;1.23;73.50;100196.13;7359092;19;20047;-57
2022/12/12 07:18:42;;;;;;;0.10;0.10;;;;;;;1.18;73.19;100195.25;7363180;19;20017;-57
2022/12/12 07:21:10;;;;;;;0.03;0.03;;;;;;;1.22;73.15;100215.00;7362053;19;20034;-56
2022/12/12 07:23:36;;;;;;;0.00;0.00;;;;;;;1.22;73.09;100207.28;7359424;19;20010;-56
2022/12/12 07:26:08;;;;;;;0.00;0.00;;;;;;;1.17;73.12;100193.53;7360067;19;20013;-58
2022/12/12 07:28:33;;;;;;;0.00;0.00;;;;;;;1.04;73.13;100178.84;7358566;19;20023;-57
2022/12/12 07:31:03;;;;;;;0.00;0.00;;;;;;;1.19;73.18;100207.25;7362716;19;20860;-56
2022/12/12 07:33:29;;;;;;;0.10;0.10;;;;;;;1.04;73.01;100184.00;7363176;19;20010;-57
2022/12/12 07:36:00;;;;;;;0.10;0.10;;;;;;;1.18;73.43;100212.38;7360508;19;20023;-57
2022/12/12 07:38:27;;;;;;;0.05;0.05;;;;;;;1.16;73.51;100214.94;7362866;19;20007;-58
2022/12/12 07:40:52;;;;;;;0.10;0.10;;;;;;;1.06;73.33;100199.41;7361076;19;20022;-57
2022/12/12 07:43:18;;;;;;;0.10;0.10;;;;;;;0.84;73.32;100164.97;7363430;19;20033;-56
2022/12/12 07:45:44;;;;;;;0.00;0.00;;;;;;;1.07;73.02;100199.44;7363325;19;20034;-57
2022/12/12 07:48:09;;;;;;;0.00;0.00;;;;;;;1.13;73.37;100203.78;7344433;19;20014;-57
2022/12/12 07:50:37;;;;;;;0.10;0.10;;;;;;;1.16;73.29;100214.94;7359329;19;20013;-58
2022/12/12 07:53:03;;;;;;;0.00;0.00;;;;;;;1.08;73.19;100201.16;7364508;19;20018;-57
2022/12/12 07:55:29;;;;;;;0.00;0.00;;;;;;;1.10;73.44;100204.59;7358236;19;20021;-56
2022/12/12 07:57:54;;;;;;;0.00;0.00;;;;;;;0.99;72.95;100190.81;7363627;19;20022;-57
2022/12/12 08:00:20;;;;;;;0.00;0.00;;;;;;;1.13;73.47;100217.50;7346455;19;20018;-57
2022/12/12 08:02:46;;;;;;;0.10;0.10;;;;;;;1.04;73.43;100204.56;7360842;19;20031;-57
2022/12/12 08:05:12;;;;;;;0.00;0.00;;;;;;;0.99;73.76;100201.09;7360783;19;20074;-57
2022/12/12 08:07:38;;;;;;;0.00;0.00;;;;;;;1.12;73.84;100213.19;7354468;19;20026;-57
2022/12/12 08:10:04;;;;;;;0.00;0.00;;;;;;;1.14;73.62;100216.63;7362996;19;20006;-58
2022/12/12 08:12:30;;;;;;;0.00;0.00;;;;;;;1.13;73.91;100204.63;7361965;19;20010;-58
2022/12/12 08:14:56;;;;;;;0.00;0.00;;;;;;;1.13;73.76;100212.34;7362588;19;20354;-58
2022/12/12 08:17:21;;;;;;;0.00;0.00;;;;;;;1.10;73.63;100208.88;7359414;19;20033;-57
2022/12/12 08:19:47;;;;;;;0.10;0.10;;;;;;;1.11;73.51;100208.03;7362996;19;20014;-57
2022/12/12 08:22:12;;;;;;;0.00;0.00;;;;;;;1.04;73.67;100204.56;7359435;19;20013;-57
2022/12/12 08:24:38;;;;;;;0.10;0.10;;;;;;;1.04;73.60;100207.13;7359737;19;20007;-56
2022/12/12 08:27:04;;;;;;;0.00;0.00;;;;;;;1.04;73.75;100201.97;7361559;19;20010;-58
2022/12/12 08:29:29;;;;;;;0.10;0.10;;;;;;;1.19;73.55;100227.81;7363878;19;20007;-57
2022/12/12 08:31:55;;;;;;;0.10;0.10;;;;;;;1.01;73.57;100199.38;7357867;19;20026;-57
2022/12/12 08:34:20;;;;;;;0.10;0.10;;;;;;;1.18;73.67;100222.69;7362006;19;20003;-56
2022/12/12 08:36:46;;;;;;;0.10;0.10;;;;;;;1.05;73.78;100208.84;7360383;19;20017;-58
2022/12/12 08:39:14;;;;;;;0.00;0.00;;;;;;;1.12;73.66;100222.63;7362673;19;20011;-56
2022/12/12 08:41:45;;;;;;;0.10;0.10;;;;;;;1.11;73.93;100221.75;7359174;19;20026;-58
2022/12/12 08:44:11;;;;;;;0.00;0.00;;;;;;;1.09;73.96;100218.31;7362190;19;20819;-58
2022/12/12 08:46:37;;;;;;;0.00;0.00;;;;;;;1.14;73.70;100221.78;7360525;19;20002;-57
2022/12/12 08:49:03;;;;;;;0.10;0.10;;;;;;;0.99;73.54;100201.94;7361325;19;20327;-58
2022/12/12 08:51:28;;;;;;;0.10;0.10;;;;;;;1.09;73.98;100215.75;7362684;19;20019;-57
2022/12/12 08:53:54;;;;;;;0.10;0.10;;;;;;;1.06;73.74;100218.28;7354276;19;20011;-57
2022/12/12 08:56:21;;;;;;;0.00;0.00;;;;;;;1.04;73.73;100220.84;7356638;19;20039;-57
2022/12/12 08:58:47;;;;;;;0.00;0.00;;;;;;;1.16;73.64;100235.50;7355380;19;20031;-58
2022/12/12 09:01:16;;;;;;;0.00;0.00;;;;;;;1.18;73.57;100233.81;7356570;19;20703;-56
2022/12/12 09:03:41;;;;;;;0.10;0.10;;;;;;;1.12;73.62;100220.91;7359544;19;20746;-56
2022/12/12 09:06:09;;;;;;;0.10;0.10;;;;;;;1.14;73.63;100221.78;7355855;19;20015;-58
2022/12/12 09:08:34;;;;;;;0.00;0.00;;;;;;;1.03;73.83;100207.97;7359865;19;20690;-57
2022/12/12 09:11:00;;;;;;;0.10;0.10;;;;;;;1.18;73.46;100238.97;7359056;19;20011;-58
2022/12/12 09:13:25;;;;;;;0.00;0.00;;;;;;;1.22;73.77;100245.84;7361109;19;20542;-57
2022/12/12 09:15:52;;;;;;;0.00;0.00;;;;;;;1.20;73.72;100242.38;7357453;19;20010;-57
2022/12/12 09:18:18;;;;;;;0.10;0.10;;;;;;;1.17;73.77;100233.81;7359374;19;20003;-55
2022/12/12 09:20:52;;;;;;;0.05;0.05;;;;;;;1.26;73.77;100232.16;7356616;19;20945;-58
2022/12/12 09:23:18;;;;;;;0.00;0.00;;;;;;;1.22;73.89;100230.44;7357555;19;20025;-56
2022/12/12 09:25:43;;;;;;;0.00;0.00;;;;;;;1.23;73.84;100219.28;7359069;19;20018;-58
2022/12/12 09:28:13;;;;;;;0.00;0.00;;;;;;;1.26;73.93;100211.56;7357730;19;20011;-57
2022/12/12 09:30:39;;;;;;;0.00;0.00;;;;;;;1.34;73.84;100228.78;7357903;19;20031;-57
2022/12/12 09:33:05;;;;;;;0.03;0.03;;;;;;;1.34;73.72;100218.50;7358847;19;20101;-56
2022/12/12 09:35:30;;;;;;;0.00;0.00;;;;;;;1.35;73.48;100221.06;7354543;19;20361;-57
2022/12/12 09:37:56;;;;;;;0.00;0.00;;;;;;;1.39;73.58;100212.53;7359362;19;20022;-58
2022/12/12 09:40:57;;;;;;;0.00;0.00;;;;;;;1.48;73.86;100225.47;7357548;19;20049;-56
2022/12/12 09:43:41;;;;;;;0.10;0.10;;;;;;;1.32;73.50;100194.47;7252599;19;2004199;-57
2022/12/12 09:46:20;;;;;;;0.10;0.10;;;;;;;1.49;73.76;100213.44;7356412;19;20089;-57
2022/12/12 09:48:46;;;;;;;0.10;0.10;;;;;;;1.53;73.49;100220.34;7357391;19;20023;-58
2022/12/12 09:51:12;;;;;;;0.10;0.10;;;;;;;1.52;73.62;100213.44;7357030;19;21378;-58
2022/12/12 09:53:44;;;;;;;0.10;0.10;;;;;;;1.47;73.49;100197.13;7359246;19;20022;-57
2022/12/12 09:56:34;;;;;;;0.10;0.10;;;;;;;1.55;73.44;100208.34;7361294;19;20052;-58
2022/12/12 09:59:13;;;;;;;0.05;0.05;;;;;;;1.65;73.24;100220.41;7357851;19;20039;-58
2022/12/12 10:02:19;;;;;;;0.10;0.10;;;;;;;1.65;73.63;100215.25;7363267;19;20006;-56
2022/12/12 10:05:03;;;;;;;0.00;0.00;;;;;;;1.69;73.36;100221.28;7261553;19;2003936;-57
2022/12/12 10:07:31;;;;;;;0.00;0.00;;;;;;;1.71;73.55;100223.00;7364341;19;20428;-57
2022/12/12 10:10:16;;;;;;;0.10;0.10;;;;;;;1.72;73.42;100224.72;7363585;19;20022;-58
2022/12/12 10:12:42;;;;;;;0.00;0.00;;;;;;;1.69;73.75;100217.00;7364838;19;20068;-58
2022/12/12 10:15:21;;;;;;;0.10;0.10;;;;;;;1.68;73.70;100197.28;7361476;19;20021;-57
2022/12/12 10:17:47;;;;;;;0.10;0.10;;;;;;;1.77;73.25;100215.34;7365439;19;20018;-57
2022/12/12 10:20:20;;;;;;;0.10;0.10;;;;;;;1.86;73.26;100224.81;7364171;19;20027;-58
2022/12/12 10:22:48;;;;;;;0.10;0.10;;;;;;;1.88;73.54;100217.09;7364071;19;20040;-56
2022/12/12 10:25:27;;;;;;;0.00;0.00;;;;;;;1.92;73.54;100218.81;7358167;19;20014;-57
2022/12/12 10:28:15;;;;;;;0.00;0.00;;;;;;;1.98;73.21;100224.03;7365021;19;20017;-58
2022/12/12 10:31:00;;;;;;;0.08;0.08;;;;;;;2.01;73.39;100219.72;7362221;19;20010;-57
2022/12/12 10:33:49;;;;;;;0.00;0.00;;;;;;;2.03;73.54;100223.19;7361798;19;20007;-57
2022/12/12 10:36:39;;;;;;;0.00;0.00;;;;;;;2.02;73.46;100213.72;7363354;19;20006;-58
2022/12/12 10:39:16;;;;;;;0.00;0.00;;;;;;;2.09;73.27;100227.50;7362357;19;20836;-58
2022/12/12 10:42:05;;;;;;;0.00;0.00;;;;;;;2.14;72.99;100223.22;7363181;19;20920;-58
2022/12/12 10:44:57;;;;;;;0.05;0.05;;;;;;;2.21;73.35;100226.66;7364145;19;20387;-59
2022/12/12 10:47:23;;;;;;;0.10;0.10;;;;;;;2.18;73.12;100222.38;7261937;19;2004416;-56
2022/12/12 10:49:53;;;;;;;0.10;0.10;;;;;;;2.26;73.39;100223.25;7362270;19;20014;-57
2022/12/12 10:52:20;;;;;;;0.10;0.10;;;;;;;2.28;73.14;100211.25;7361864;19;20037;-58
2022/12/12 10:54:59;;;;;;;0.10;0.10;;;;;;;2.34;73.14;100213.84;7365802;19;20011;-58
2022/12/12 10:57:32;;;;;;;0.00;0.00;;;;;;;2.33;73.06;100204.41;7363245;19;21135;-57
2022/12/12 10:59:58;;;;;;;0.00;0.00;;;;;;;2.38;73.17;100213.84;7361362;19;20014;-57
2022/12/12 11:02:26;;;;;;;0.10;0.10;;;;;;;2.45;73.03;100215.59;7362043;19;20006;-58
2022/12/12 11:05:00;;;;;;;0.10;0.10;;;;;;;2.49;72.91;100214.75;7359893;19;20014;-58
2022/12/12 11:07:27;;;;;;;0.10;0.10;;;;;;;2.51;72.78;100213.03;7363925;19;20030;-57
2022/12/12 11:09:54;;;;;;;0.00;0.00;;;;;;;2.45;72.83;100185.53;7362919;19;20034;-58
2022/12/12 11:12:20;;;;;;;0.00;0.00;;;;;;;2.54;73.12;100190.69;7362723;19;20062;-57
2022/12/12 11:14:45;;;;;;;0.00;0.00;;;;;;;2.60;73.11;100189.84;7361667;19;20013;-58
2022/12/12 11:17:27;;;;;;;0.10;0.10;;;;;;;2.65;72.84;100188.13;7361703;19;20015;-57
2022/12/12 11:19:56;;;;;;;0.00;0.00;;;;;;;2.68;72.59;100188.13;7363913;19;20018;-58
2022/12/12 11:22:22;;;;;;;0.10;0.10;;;;;;;2.55;72.92;100156.34;7362882;19;20091;-55
2022/12/12 11:24:49;;;;;;;0.00;0.00;;;;;;;2.76;72.67;100189.00;7362715;19;20090;-56
2022/12/12 11:27:27;;;;;;;0.00;0.00;;;;;;;2.82;72.59;100183.84;7361672;19;20021;-58
2022/12/12 11:30:51;;;;;;;0.10;0.10;;;;;;;2.80;72.61;100180.41;7361826;19;20019;-58
2022/12/12 11:33:32;;;;;;;0.00;0.00;;;;;;;2.55;72.33;100124.56;7152669;19;2004597;-58
2022/12/12 11:36:00;;;;;;;0.00;0.00;;;;;;;2.86;72.31;100176.97;7354747;19;20018;-56
2022/12/12 11:38:33;;;;;;;0.05;0.05;;;;;;;2.90;72.41;100167.53;7357830;19;20015;-57
2022/12/12 11:41:03;;;;;;;0.00;0.00;;;;;;;2.95;72.37;100176.13;7363131;19;20039;-57
2022/12/12 11:43:34;;;;;;;0.00;0.00;;;;;;;3.00;72.54;100171.81;7360008;19;20091;-57
2022/12/12 11:46:13;;;;;;;0.00;0.00;;;;;;;2.95;72.41;100155.50;7360690;19;20572;-57
2022/12/12 11:48:50;;;;;;;0.00;0.00;;;;;;;3.14;72.36;100170.06;7361131;19;20006;-57
2022/12/12 11:51:31;;;;;;;0.10;0.10;;;;;;;3.22;72.79;100170.06;7361168;19;20015;-58
2022/12/12 11:53:57;;;;;;;0.00;0.00;;;;;;;3.25;72.39;100164.91;7360305;19;20093;-57
2022/12/12 11:56:28;;;;;;;0.00;0.00;;;;;;;3.33;72.20;100158.00;7361319;19;21407;-59
2022/12/12 11:59:05;;;;;;;0.00;0.00;;;;;;;3.37;71.98;100145.09;7363072;19;20006;-58
2022/12/12 12:01:30;;;;;;;0.00;0.00;;;;;;;3.41;72.21;100145.09;7361832;19;20035;-58
2022/12/12 12:04:44;;;;;;;0.00;0.00;;;;;;;3.40;72.29;100139.09;7360555;19;20010;-57